Flight Track Log - Related Links

Times and Time Zones

All times are in EDT time to prevent confusion due to time zone crossing. See the AAL2345 flight status page for this flight to view local times or setup timezone preferences in your user account.

Time Position Orientation Groundspeed Altitude Reporting Facility
EDT Latitude Longitude Course Direction KTS MPH feet Rate Location/Type
Sat 07:05:58 PM 41.9000 -87.9167 189° South 197 227 3,300  Level Chicago TRACON
Sat 07:06:29 PM 41.8731 -87.9125 173° South 214 246 4,200 2,022 Climbing Chicago Center
Sat 07:07:00 PM 41.7407 -88.1917 191° South  Level Estimated
Sat 07:07:30 PM 41.8039 -87.9242 187° South 240 276 6,400  Level Chicago Center
Sat 07:08:00 PM 41.6602 -88.2862 180° South  Level Estimated
Sat 07:08:32 PM 41.7272 -87.9425 190° South 277 319 8,900  Level Chicago Center
Sat 07:09:00 PM 41.5796 -88.3804 189° South  Level Estimated
Sat 07:09:33 PM 41.6431 -87.9539 186° South 301 346 11,100  Level Chicago Center
Sat 07:10:00 PM 41.5080 -88.2742 132° Southeast  Level FlightAware Approximate
Sat 07:10:35 PM 41.5467 -87.9775 190° South 352 405 12,800  Level Chicago Center
Sat 07:11:00 PM 41.4270 -88.3706 189° South  Level Estimated
Sat 07:11:36 PM 41.4422 -87.9950 187° South 370 426 15,900  Level Chicago Center
Sat 07:12:38 PM 41.3333 -88.0169 189° South 378 435 17,600 1,984 Climbing Chicago Center
Sat 07:13:40 PM 41.1994 -88.0528 191° South 409 471 20,000 2,049 Climbing Chicago Center
Sat 07:14:41 PM 41.0922 -88.1011 199° South 406 467 21,800 2,000 Climbing Chicago Center
Sat 07:15:43 PM 40.9822 -88.1464 197° South 414 476 24,100 1,610 Climbing Chicago Center
Sat 07:16:44 PM 40.8725 -88.1917 197° South 414 476 25,100 1,122 Climbing Chicago Center
Sat 07:17:46 PM 40.7550 -88.2397 197° South 439 505 26,400 1,366 Climbing Chicago Center
Sat 07:18:47 PM 40.6367 -88.2872 197° South 446 513 27,900 1,415 Climbing Chicago Center
Sat 07:19:49 PM 40.5172 -88.3372 198° South 451 519 29,300 1,707 Climbing Chicago Center
Sat 07:20:50 PM 40.3783 -88.3914 197° South 439 505 31,400 1,561 Climbing Chicago Center
Sat 07:21:52 PM 40.2650 -88.4369 197° South 431 496 32,500 976 Climbing Chicago Center
Sat 07:22:53 PM 40.1633 -88.4772 197° South 427 491 33,400 732 Climbing Chicago Center
Sat 07:23:55 PM 40.0503 -88.5211 197° South 423 487 34,000 293 Climbing Chicago Center
Sat 07:24:56 PM 39.9389 -88.5661 197° South 419 482 34,000  Level Chicago Center
Sat 07:25:45 PM 39.8242 -88.6119 197° South 422 486 34,000  Level Kansas City Center
Sat 07:26:47 PM 39.7117 -88.6581 198° South 422 486 34,000  Level Kansas City Center
Sat 07:27:50 PM 39.5989 -88.7031 197° South 423 487 34,000  Level Kansas City Center
Sat 07:28:51 PM 39.4858 -88.7472 197° South 423 487 34,000  Level Kansas City Center
Sat 07:29:50 PM 39.3806 -88.7886 197° South 425 489 34,000  Level Kansas City Center
Sat 07:30:52 PM 39.2672 -88.8331 197° South 425 489 34,000  Level Kansas City Center
Sat 07:31:53 PM 39.1533 -88.8772 197° South 426 490 34,000  Level Kansas City Center
Sat 07:32:54 PM 39.0378 -88.9219 197° South 430 495 34,000  Level Kansas City Center
Sat 07:33:56 PM 38.9169 -88.9956 205° Southwest 416 479 34,000  Level Kansas City Center
Sat 07:34:54 PM 38.8178 -89.0758 212° Southwest 421 484 34,000  Level Kansas City Center
Sat 07:35:57 PM 38.7092 -89.1606 211° Southwest 423 487 34,000  Level Kansas City Center
Sat 07:36:56 PM 38.6069 -89.2422 212° Southwest 429 494 34,000  Level Kansas City Center
Sat 07:37:59 PM 38.5047 -89.3225 212° Southwest 431 496 34,000  Level Kansas City Center
Sat 07:39:00 PM 38.4042 -89.4039 212° Southwest 428 493 34,000  Level Kansas City Center
Sat 07:40:00 PM 38.3014 -89.4811 211° Southwest 428 493 34,000  Level Kansas City Center
Sat 07:41:01 PM 38.2025 -89.5611 212° Southwest 421 484 34,000  Level Kansas City Center
Sat 07:42:00 PM 38.1011 -89.6392 211° Southwest 425 489 34,000  Level Kansas City Center
Sat 07:43:03 PM 37.9911 -89.7256 212° Southwest 430 495 34,000  Level Kansas City Center
Sat 07:44:02 PM 37.8894 -89.8053 212° Southwest 430 495 34,000  Level Kansas City Center
Sat 07:45:05 PM 37.7956 -89.8772 211° Southwest 431 496 34,000  Level Kansas City Center
Sat 07:46:06 PM 37.6919 -89.9572 211° Southwest 434 499 34,000  Level Kansas City Center
Sat 07:48:07 PM 37.4889 -90.1169 212° Southwest 431 496 34,000  Level Kansas City Center
Sat 07:49:07 PM 37.3861 -90.1956 211° Southwest 432 497 34,000  Level Kansas City Center
Sat 07:50:09 PM 37.2658 -90.2883 212° Southwest 430 495 34,000  Level Kansas City Center
Sat 07:51:11 PM 37.1633 -90.3647 211° Southwest 429 494 34,000  Level Kansas City Center
Sat 07:52:11 PM 37.0597 -90.4428 211° Southwest 432 497 34,000  Level Kansas City Center
Sat 07:53:12 PM 36.9572 -90.5183 211° Southwest 431 496 34,000  Level Kansas City Center
Sat 07:54:10 PM 36.8550 -90.5958 211° Southwest 431 496 34,000  Level Kansas City Center
Sat 07:54:44 PM 36.7900 -90.6497 214° Southwest 447 514 34,000  Level Memphis Center
Sat 07:55:44 PM 36.6875 -90.7269 211° Southwest 441 507 34,000  Level Memphis Center
Sat 07:56:44 PM 36.5872 -90.8042 212° Southwest 446 513 34,000  Level Memphis Center
Sat 07:57:44 PM 36.4828 -90.8783 210° Southwest 446 513 34,000  Level Memphis Center
Sat 07:58:44 PM 36.3781 -90.9550 211° Southwest 441 507 34,000  Level Memphis Center
Sat 07:59:44 PM 36.2756 -91.0314 211° Southwest 441 507 34,000  Level Memphis Center
Sat 08:00:44 PM 36.1689 -91.1078 210° Southwest 441 507 34,000  Level Memphis Center
Sat 08:01:44 PM 36.0683 -91.1814 211° Southwest 441 507 34,000  Level Memphis Center
Sat 08:02:44 PM 35.9678 -91.2597 212° Southwest 441 507 34,000  Level Memphis Center
Sat 08:03:44 PM 35.8567 -91.3356 209° Southwest 446 513 34,000  Level Memphis Center
Sat 08:04:44 PM 35.7517 -91.4108 210° Southwest 446 513 34,000  Level Memphis Center
Sat 08:05:44 PM 35.6553 -91.4839 212° Southwest 431 496 34,000  Level Memphis Center
Sat 08:06:44 PM 35.5503 -91.5539 208° Southwest 431 496 34,000  Level Memphis Center
Sat 08:07:44 PM 35.4472 -91.6314 211° Southwest 431 496 34,000  Level Memphis Center
Sat 08:08:44 PM 35.3444 -91.7061 211° Southwest 431 496 34,000  Level Memphis Center
Sat 08:09:44 PM 35.2414 -91.7808 211° Southwest 431 496 34,000  Level Memphis Center
Sat 08:10:44 PM 35.1403 -91.8503 209° Southwest 431 496 34,000  Level Memphis Center
Sat 08:11:44 PM 35.0350 -91.9269 211° Southwest 431 496 34,000  Level Memphis Center
Sat 08:12:44 PM 34.9319 -92.0011 211° Southwest 431 496 34,000  Level Memphis Center
Sat 08:13:44 PM 34.8286 -92.0725 210° Southwest 431 496 34,000  Level Memphis Center
Sat 08:14:44 PM 34.7256 -92.1461 210° Southwest 431 496 34,000  Level Memphis Center
Sat 08:15:44 PM 34.6592 -92.2583 234° Southwest 414 476 34,000  Level Memphis Center
Sat 08:16:44 PM 34.6194 -92.3961 251° West 418 481 34,000  Level Memphis Center
Sat 08:17:44 PM 34.5817 -92.5367 252° West 423 487 34,000  Level Memphis Center
Sat 08:18:44 PM 34.5503 -92.6569 252° West 428 493 34,000  Level Memphis Center
Sat 08:19:44 PM 34.5142 -92.7944 252° West 428 493 34,000  Level Memphis Center
Sat 08:20:44 PM 34.4781 -92.9294 252° West 430 495 34,000  Level Memphis Center
Sat 08:21:44 PM 34.4397 -93.0694 252° West 430 495 34,000  Level Memphis Center
Sat 08:22:44 PM 34.4033 -93.2042 252° West 430 495 34,000  Level Memphis Center
Sat 08:24:01 PM 34.3572 -93.3886 253° West 442 509 34,000  Level Fort Worth Center
Sat 08:25:01 PM 34.3197 -93.5236 251° West 436 502 34,000  Level Fort Worth Center
Sat 08:26:01 PM 34.2822 -93.6611 252° West 431 496 34,000  Level Fort Worth Center
Sat 08:27:01 PM 34.2464 -93.7933 252° West 431 496 34,000  Level Fort Worth Center
Sat 08:28:01 PM 34.2106 -93.9278 252° West 431 496 34,000 -250 Level Fort Worth Center
Sat 08:29:01 PM 34.1706 -94.0650 251° West 431 496 33,500 -1,650 Descending Fort Worth Center
Sat 08:30:01 PM 34.1322 -94.1994 251° West 431 496 30,700 -2,600 Descending Fort Worth Center
Sat 08:31:01 PM 34.0939 -94.3361 251° West 431 496 28,300 -1,900 Descending Fort Worth Center
Sat 08:32:01 PM 34.0556 -94.4731 251° West 431 496 26,900 -1,200 Descending Fort Worth Center
Sat 08:33:01 PM 34.0167 -94.6044 250° West 431 496 25,900 -1,000 Descending Fort Worth Center
Sat 08:34:01 PM 33.9778 -94.7361 250° West 431 496 24,900 -950 Descending Fort Worth Center
Sat 08:35:01 PM 33.9408 -94.8647 251° West 426 490 24,000 -450 Descending Fort Worth Center
Sat 08:36:01 PM 33.9078 -94.9883 252° West 414 476 24,000  Level Fort Worth Center
Sat 08:37:01 PM 33.8706 -95.1094 250° West 400 460 24,000  Level Fort Worth Center
Sat 08:38:01 PM 33.8331 -95.2306 250° West 394 453 24,000  Level Fort Worth Center
Sat 08:39:01 PM 33.7975 -95.3539 251° West 394 453 24,000 -300 Level Fort Worth Center
Sat 08:40:01 PM 33.7639 -95.4697 251° West 388 447 23,400 -1,050 Descending Fort Worth Center
Sat 08:41:01 PM 33.7283 -95.5928 251° West 387 445 21,900 -1,500 Descending Fort Worth Center
Sat 08:42:01 PM 33.7025 -95.6906 252° West 369 425 20,400 -1,250 Descending Fort Worth Center
Sat 08:43:01 PM 33.7019 -95.8106 270° West 356 410 19,400 -750 Descending Fort Worth Center
Sat 08:44:01 PM 33.6783 -95.9383 258° West 356 410 18,900 -250 Descending Fort Worth Center
Sat 08:45:01 PM 33.6589 -96.0433 257° West 356 410 18,900 -500 Level Fort Worth Center
Sat 08:46:01 PM 33.6331 -96.1686 256° West 356 410 17,900 -2,100 Descending Fort Worth Center
Sat 08:47:01 PM 33.6025 -96.2664 249° West 356 410 14,700 -3,100 Descending Fort Worth Center
Sat 08:48:01 PM 33.5114 -96.3322 211° Southwest 334 384 11,700 -1,800 Descending Fort Worth Center
Sat 08:49:01 PM 33.4344 -96.3781 206° Southwest 344 396 11,100 -350 Descending Fort Worth Center
Sat 08:50:01 PM 33.3558 -96.4511 218° Southwest 344 396 11,000 -429 Descending Fort Worth Center
Sat 08:50:39 PM 33.3167 -96.5000 226° Southwest 292 336 10,400 -1,212 Descending Dallas / Fort Worth TRACON
Sat 08:51:40 PM 33.2667 -96.5667 228° Southwest 275 316 9,000 -1,500 Descending Dallas / Fort Worth TRACON
Sat 08:52:39 PM 33.2333 -96.6500 244° Southwest 274 315 7,400 -1,481 Descending Dallas / Fort Worth TRACON
Sat 08:53:01 PM 33.2236 -96.6783 248° West 279 321 7,000 -1,537 Descending Fort Worth Center
Sat 08:54:01 PM 33.1947 -96.7481 244° Southwest 273 314 5,300 -1,450 Descending Fort Worth Center
Sat 08:55:01 PM 33.1472 -96.8278 235° Southwest 273 314 4,100 -1,163 Descending Fort Worth Center
Sat 08:55:39 PM 33.1167 -96.8667 227° Southwest 273 314 3,400 -1,105 Descending Dallas / Fort Worth TRACON

Login

Don't have an account? Register now (free) for customized features, flight alerts, and more!